createdAt,value
2023-06-19T00:00:05.140Z,1.20
2023-06-19T00:01:05.160Z,1.21
2023-06-19T00:02:05.222Z,1.22
2023-06-19T00:03:05.283Z,1.24
2023-06-19T00:04:05.302Z,1.22
2023-06-19T00:05:05.268Z,1.24
2023-06-19T00:06:05.299Z,1.21
2023-06-19T00:07:05.352Z,1.23
2023-06-19T00:08:05.362Z,1.22
2023-06-19T00:09:05.372Z,1.22
2023-06-19T00:10:05.411Z,1.21
2023-06-19T00:11:05.475Z,1.20
2023-06-19T00:12:05.483Z,1.21
2023-06-19T00:13:05.505Z,1.21
2023-06-19T00:14:05.520Z,1.20
2023-06-19T00:15:05.564Z,1.21
2023-06-19T00:16:05.623Z,1.20
2023-06-19T00:17:05.616Z,1.20
2023-06-19T00:18:05.698Z,1.20
2023-06-19T00:19:05.675Z,1.22
2023-06-19T00:20:05.708Z,1.19
2023-06-19T00:21:05.738Z,1.21
2023-06-19T00:22:05.782Z,1.20
2023-06-19T00:23:05.800Z,1.19
2023-06-19T00:24:05.876Z,1.20
2023-06-19T00:25:05.869Z,1.19
2023-06-19T00:26:05.910Z,1.20
2023-06-19T00:27:05.936Z,1.17
2023-06-19T00:28:05.973Z,1.19
2023-06-19T00:29:06.009Z,1.18
2023-06-19T00:30:06.071Z,1.18
2023-06-19T00:31:06.066Z,1.18
2023-06-19T00:32:06.086Z,1.19
2023-06-19T00:33:06.158Z,1.18
2023-06-19T00:34:06.133Z,1.21
2023-06-19T00:35:06.155Z,1.19
2023-06-19T00:36:06.174Z,1.18
2023-06-19T00:37:06.210Z,1.17
2023-06-19T00:38:06.228Z,1.18
2023-06-19T00:39:06.254Z,1.16
2023-06-19T00:40:06.274Z,1.19
2023-06-19T00:41:06.302Z,1.21
2023-06-19T00:42:06.335Z,1.20
2023-06-19T00:43:06.347Z,1.19
2023-06-19T00:44:06.376Z,1.17
2023-06-19T00:45:06.402Z,1.18
2023-06-19T00:46:06.556Z,1.17
2023-06-19T00:47:06.481Z,1.17
2023-06-19T00:48:06.564Z,1.17
2023-06-19T00:49:06.538Z,1.16
2023-06-19T00:50:07.084Z,1.19
2023-06-19T00:51:06.594Z,1.20
2023-06-19T00:52:06.624Z,1.17
2023-06-19T00:53:06.659Z,1.16
2023-06-19T00:54:06.692Z,1.17
2023-06-19T00:55:06.725Z,1.20
2023-06-19T00:56:06.765Z,1.18
2023-06-19T00:57:06.787Z,1.22
2023-06-19T00:58:06.828Z,1.18
2023-06-19T00:59:06.846Z,1.21
2023-06-19T01:00:06.894Z,1.20
2023-06-19T01:01:09.195Z,1.19
2023-06-19T01:02:07.037Z,1.18
2023-06-19T01:03:06.925Z,1.20
2023-06-19T01:04:06.916Z,1.19
2023-06-19T01:05:06.795Z,1.20
2023-06-19T01:06:06.768Z,1.17
2023-06-19T01:07:06.736Z,1.16
2023-06-19T01:08:06.695Z,1.19
2023-06-19T01:09:06.667Z,1.20
2023-06-19T01:10:06.628Z,1.18
2023-06-19T01:11:14.899Z,1.18
2023-06-19T01:12:07.574Z,1.18
2023-06-19T01:13:06.528Z,1.19
2023-06-19T01:14:06.487Z,1.19
2023-06-19T01:15:06.493Z,1.21
2023-06-19T01:16:06.440Z,1.21
2023-06-19T01:17:06.550Z,1.21
2023-06-19T01:18:06.430Z,1.21
2023-06-19T01:19:06.366Z,1.20
2023-06-19T01:20:06.350Z,1.24
2023-06-19T01:21:06.382Z,1.21
2023-06-19T01:22:06.408Z,1.18
2023-06-19T01:23:06.446Z,1.19
2023-06-19T01:24:06.531Z,1.22
2023-06-19T01:25:06.525Z,1.20
2023-06-19T01:26:06.549Z,1.19
2023-06-19T01:27:06.578Z,1.19
2023-06-19T01:28:06.612Z,1.21
2023-06-19T01:29:06.659Z,1.17
2023-06-19T01:30:06.681Z,1.18
2023-06-19T01:31:06.706Z,1.18
2023-06-19T01:32:06.736Z,1.18
2023-06-19T01:33:06.820Z,1.16
2023-06-19T01:34:06.826Z,1.21
2023-06-19T01:35:06.848Z,1.19
2023-06-19T01:36:06.884Z,1.18
2023-06-19T01:37:06.899Z,1.17
2023-06-19T01:38:06.939Z,1.18
2023-06-19T01:39:06.958Z,1.16
2023-06-19T01:40:07.003Z,1.16
2023-06-19T01:41:07.023Z,1.17
2023-06-19T01:42:07.068Z,1.18
2023-06-19T01:43:07.109Z,1.19
2023-06-19T01:44:07.131Z,1.17
2023-06-19T01:45:07.170Z,1.16
2023-06-19T01:46:07.293Z,1.17
2023-06-19T01:47:07.219Z,1.17
2023-06-19T01:48:07.325Z,1.18
2023-06-19T01:49:07.294Z,1.19
2023-06-19T01:50:07.328Z,1.18
2023-06-19T01:51:07.351Z,1.18
2023-06-19T01:52:07.381Z,1.16
2023-06-19T01:53:07.414Z,1.18
2023-06-19T01:54:07.455Z,1.17
2023-06-19T01:55:07.523Z,1.20
2023-06-19T01:56:07.587Z,1.17
2023-06-19T01:57:07.547Z,1.19
2023-06-19T01:58:07.585Z,1.17
2023-06-19T01:59:07.615Z,1.19
2023-06-19T02:00:07.630Z,1.17
2023-06-19T02:01:07.676Z,1.18
2023-06-19T02:02:07.708Z,1.14
2023-06-19T02:03:07.801Z,1.20
2023-06-19T02:04:07.826Z,1.16
2023-06-19T02:05:07.810Z,1.18
2023-06-19T02:06:07.849Z,1.17
2023-06-19T02:07:07.881Z,1.16
2023-06-19T02:08:07.953Z,1.18
2023-06-19T02:09:07.934Z,1.15
2023-06-19T02:10:07.965Z,1.20
2023-06-19T02:11:07.993Z,1.17
2023-06-19T02:12:08.027Z,1.15
2023-06-19T02:13:08.067Z,1.15
2023-06-19T02:14:08.090Z,1.16
2023-06-19T02:15:08.144Z,1.16
2023-06-19T02:16:08.234Z,1.18
2023-06-19T02:17:08.206Z,1.18
2023-06-19T02:18:08.257Z,1.17
2023-06-19T02:19:08.307Z,1.18
2023-06-19T02:20:08.325Z,1.18
2023-06-19T02:21:08.376Z,1.20
2023-06-19T02:22:08.401Z,1.18
2023-06-19T02:23:08.431Z,1.18
2023-06-19T02:24:08.485Z,1.18
2023-06-19T02:25:08.513Z,1.16
2023-06-19T02:26:08.565Z,1.17
2023-06-19T02:27:08.592Z,1.18
2023-06-19T02:28:08.626Z,1.15
2023-06-19T02:29:08.664Z,1.16
2023-06-19T02:30:08.704Z,1.16
2023-06-19T02:31:08.846Z,1.16
2023-06-19T02:32:08.789Z,1.15
2023-06-19T02:33:08.869Z,1.17
2023-06-19T02:34:08.856Z,1.16
2023-06-19T02:35:08.927Z,1.16
2023-06-19T02:36:08.941Z,1.17
2023-06-19T02:37:08.984Z,1.16
2023-06-19T02:38:09.029Z,1.15
2023-06-19T02:39:09.070Z,1.18
2023-06-19T02:40:09.123Z,1.17
2023-06-19T02:41:09.153Z,1.17
2023-06-19T02:42:09.196Z,1.15
2023-06-19T02:43:09.227Z,1.15
2023-06-19T02:44:09.265Z,1.19
2023-06-19T02:45:09.298Z,1.17
2023-06-19T02:46:12.228Z,1.16
2023-06-19T02:47:09.303Z,1.21
2023-06-19T02:48:09.275Z,1.18
2023-06-19T02:49:09.244Z,1.17
2023-06-19T02:50:09.220Z,1.20
2023-06-19T02:51:09.217Z,1.18
2023-06-19T02:52:09.178Z,1.18
2023-06-19T02:53:09.164Z,1.18
2023-06-19T02:54:09.130Z,1.18
2023-06-19T02:55:09.183Z,1.17
2023-06-19T02:56:09.063Z,1.17
2023-06-19T02:57:09.053Z,1.18
2023-06-19T02:58:09.016Z,1.17
2023-06-19T02:59:09.000Z,1.19
2023-06-19T03:00:08.976Z,1.20
2023-06-19T03:01:08.980Z,1.16
2023-06-19T03:02:08.951Z,1.17
2023-06-19T03:03:09.054Z,1.18
2023-06-19T03:04:08.887Z,1.16
2023-06-19T03:05:08.866Z,1.17
2023-06-19T03:06:08.847Z,1.18
2023-06-19T03:07:08.824Z,1.18
2023-06-19T03:08:08.800Z,1.18
2023-06-19T03:09:08.773Z,1.16
2023-06-19T03:10:08.754Z,1.16
2023-06-19T03:11:08.724Z,1.18
2023-06-19T03:12:08.714Z,1.18
2023-06-19T03:13:08.745Z,1.18
2023-06-19T03:14:08.790Z,1.17
2023-06-19T03:15:08.825Z,1.19
2023-06-19T03:16:08.957Z,1.16
2023-06-19T03:17:08.934Z,1.15
2023-06-19T03:18:09.016Z,1.17
2023-06-19T03:19:08.973Z,1.17
2023-06-19T03:20:09.013Z,1.16
2023-06-19T03:21:09.056Z,1.18
2023-06-19T03:22:09.103Z,1.15
2023-06-19T03:23:09.149Z,1.17
2023-06-19T03:24:09.209Z,1.19
2023-06-19T03:25:09.232Z,1.16
2023-06-19T03:26:09.248Z,1.17
2023-06-19T03:27:09.293Z,1.18
2023-06-19T03:28:09.329Z,1.17
2023-06-19T03:29:09.395Z,1.16
2023-06-19T03:30:09.406Z,1.16
2023-06-19T03:31:09.437Z,1.16
2023-06-19T03:32:09.477Z,1.14
2023-06-19T03:33:09.537Z,1.17
2023-06-19T03:34:09.558Z,1.15
2023-06-19T03:35:09.639Z,1.16
2023-06-19T03:36:09.644Z,1.18
2023-06-19T03:37:09.690Z,1.19
2023-06-19T03:38:09.747Z,1.16
2023-06-19T03:39:09.766Z,1.17
2023-06-19T03:40:09.811Z,1.15
2023-06-19T03:41:09.852Z,1.18
2023-06-19T03:42:09.913Z,1.14
2023-06-19T03:43:09.934Z,1.15
2023-06-19T03:44:09.972Z,1.14
2023-06-19T03:45:10.034Z,1.16
2023-06-19T03:46:10.128Z,1.16
2023-06-19T03:47:10.103Z,1.15
2023-06-19T03:48:10.171Z,1.15
2023-06-19T03:49:10.192Z,1.17
2023-06-19T03:50:19.758Z,1.17
2023-06-19T03:51:11.207Z,1.17
2023-06-19T03:52:10.179Z,1.18
2023-06-19T03:53:10.155Z,1.16
2023-06-19T03:54:10.124Z,1.17
2023-06-19T03:55:10.090Z,1.17
2023-06-19T03:56:10.069Z,1.16
2023-06-19T03:57:10.048Z,1.16
2023-06-19T03:58:10.035Z,1.16
2023-06-19T03:59:10.052Z,1.17
2023-06-19T04:00:10.090Z,1.15
2023-06-19T04:01:10.191Z,1.15
2023-06-19T04:02:10.163Z,1.16
2023-06-19T04:03:10.335Z,1.17
2023-06-19T04:04:10.383Z,1.17
2023-06-19T04:05:10.349Z,1.17
2023-06-19T04:06:10.325Z,1.18
2023-06-19T04:07:10.374Z,1.19
2023-06-19T04:08:10.420Z,1.17
2023-06-19T04:09:10.451Z,1.17
2023-06-19T04:10:10.502Z,1.16
2023-06-19T04:11:10.535Z,1.15
2023-06-19T04:12:10.573Z,1.16
2023-06-19T04:13:10.613Z,1.16
2023-06-19T04:14:10.651Z,1.17
2023-06-19T04:15:10.704Z,1.14
2023-06-19T04:16:10.768Z,1.14
2023-06-19T04:17:10.759Z,1.15
2023-06-19T04:18:10.787Z,1.17
2023-06-19T04:19:10.823Z,1.16
2023-06-19T04:20:10.846Z,1.13
2023-06-19T04:21:10.894Z,1.16
2023-06-19T04:22:10.937Z,1.13
2023-06-19T04:23:10.980Z,1.14
2023-06-19T04:24:11.023Z,1.16
2023-06-19T04:25:11.099Z,1.15
2023-06-19T04:26:11.099Z,1.17
2023-06-19T04:27:11.156Z,1.16
2023-06-19T04:28:11.169Z,1.14
2023-06-19T04:29:11.221Z,1.14
2023-06-19T04:30:11.257Z,1.14
2023-06-19T04:31:11.292Z,1.17
2023-06-19T04:32:11.346Z,1.16
2023-06-19T04:33:11.539Z,1.18
2023-06-19T04:34:11.419Z,1.15
2023-06-19T04:35:11.567Z,1.13
2023-06-19T04:36:11.490Z,1.16
2023-06-19T04:37:11.517Z,1.16
2023-06-19T04:38:11.575Z,1.16
2023-06-19T04:39:11.608Z,1.15
2023-06-19T04:40:11.649Z,1.15
2023-06-19T04:41:11.691Z,1.17
2023-06-19T04:42:11.735Z,1.14
2023-06-19T04:43:11.779Z,1.14
2023-06-19T04:44:11.816Z,1.17
2023-06-19T04:45:11.878Z,1.15
2023-06-19T04:46:11.913Z,1.14
2023-06-19T04:47:11.910Z,1.13
2023-06-19T04:48:12.013Z,1.15
2023-06-19T04:49:11.968Z,1.15
2023-06-19T04:50:12.026Z,1.14
2023-06-19T04:51:12.041Z,1.13
2023-06-19T04:52:12.075Z,1.14
2023-06-19T04:53:12.108Z,1.15
2023-06-19T04:54:12.139Z,1.15
2023-06-19T04:55:12.181Z,1.15
2023-06-19T04:56:12.204Z,1.16
2023-06-19T04:57:12.250Z,1.16
2023-06-19T04:58:12.278Z,1.13
2023-06-19T04:59:12.315Z,1.17
2023-06-19T05:00:12.361Z,1.16
2023-06-19T05:01:12.395Z,1.17
2023-06-19T05:02:12.398Z,1.16
2023-06-19T05:03:12.499Z,1.16
2023-06-19T05:04:12.538Z,1.14
2023-06-19T05:05:12.630Z,1.14
2023-06-19T05:06:12.538Z,1.14
2023-06-19T05:07:12.566Z,1.18
2023-06-19T05:08:12.592Z,1.18
2023-06-19T05:09:12.619Z,1.14
2023-06-19T05:10:12.647Z,1.17
2023-06-19T05:11:12.672Z,1.17
2023-06-19T05:12:12.717Z,1.15
2023-06-19T05:13:12.757Z,1.15
2023-06-19T05:14:12.768Z,1.14
2023-06-19T05:15:12.816Z,1.16
2023-06-19T05:16:12.926Z,1.18
2023-06-19T05:17:12.873Z,1.15
2023-06-19T05:18:12.932Z,1.14
2023-06-19T05:19:12.902Z,1.16
2023-06-19T05:20:12.988Z,1.15
2023-06-19T05:21:12.994Z,1.16
2023-06-19T05:22:13.006Z,1.15
2023-06-19T05:23:13.024Z,1.18
2023-06-19T05:24:13.110Z,1.15
2023-06-19T05:25:13.104Z,1.18
2023-06-19T05:26:13.114Z,1.21
2023-06-19T05:27:13.663Z,1.22
2023-06-19T05:28:13.151Z,1.28
2023-06-19T05:29:13.213Z,1.29
2023-06-19T05:30:13.181Z,1.32
2023-06-19T05:31:14.254Z,1.32
2023-06-19T05:32:13.232Z,1.34
2023-06-19T05:33:13.099Z,1.38
2023-06-19T05:34:13.060Z,1.43
2023-06-19T05:35:15.459Z,1.56
2023-06-19T05:36:13.015Z,1.61
2023-06-19T05:37:12.994Z,1.63
2023-06-19T05:38:12.962Z,1.63
2023-06-19T05:39:12.990Z,1.64
2023-06-19T05:40:12.900Z,1.64
2023-06-19T05:41:12.874Z,1.71
2023-06-19T05:42:12.841Z,1.67
2023-06-19T05:43:12.819Z,1.70
2023-06-19T05:44:12.797Z,1.70
2023-06-19T05:45:12.787Z,1.70
2023-06-19T05:46:12.771Z,1.68
2023-06-19T05:47:12.762Z,1.70
2023-06-19T05:48:12.678Z,1.69
2023-06-19T05:49:12.712Z,1.70
2023-06-19T05:50:12.611Z,1.69
2023-06-19T05:51:12.589Z,1.73
2023-06-19T05:52:12.554Z,1.69
2023-06-19T05:53:15.410Z,1.66
2023-06-19T05:54:12.494Z,1.66
2023-06-19T05:55:12.537Z,1.66
2023-06-19T05:56:12.423Z,1.68
2023-06-19T05:57:12.403Z,1.70
2023-06-19T05:58:12.356Z,1.72
2023-06-19T05:59:12.320Z,1.71
2023-06-19T06:00:12.281Z,1.75
2023-06-19T06:01:12.326Z,1.72
2023-06-19T06:02:12.219Z,1.71
2023-06-19T06:03:12.187Z,1.70
2023-06-19T06:04:12.208Z,1.71
2023-06-19T06:05:12.132Z,1.73
2023-06-19T06:06:12.084Z,1.69
2023-06-19T06:07:12.054Z,1.70
2023-06-19T06:08:12.023Z,1.68
2023-06-19T06:09:12.740Z,1.70
2023-06-19T06:10:11.960Z,1.62
2023-06-19T06:11:11.944Z,1.69
2023-06-19T06:12:11.921Z,1.70
2023-06-19T06:13:11.858Z,1.70
2023-06-19T06:14:13.490Z,1.70
2023-06-19T06:15:11.800Z,1.69
2023-06-19T06:16:11.783Z,1.73
2023-06-19T06:17:11.826Z,1.72
2023-06-19T06:18:11.743Z,1.72
2023-06-19T06:19:11.673Z,1.71
2023-06-19T06:20:11.647Z,1.70
2023-06-19T06:21:11.618Z,1.70
2023-06-19T06:22:11.576Z,1.73
2023-06-19T06:23:11.556Z,1.72
2023-06-19T06:24:11.562Z,1.74
2023-06-19T06:25:13.094Z,1.80
2023-06-19T06:26:11.538Z,1.80
2023-06-19T06:27:11.436Z,1.86
2023-06-19T06:28:11.408Z,1.63
2023-06-19T06:29:11.358Z,1.55
2023-06-19T06:30:11.335Z,1.34
2023-06-19T06:31:12.247Z,1.24
2023-06-19T06:32:11.265Z,1.19
2023-06-19T06:33:11.228Z,1.14
2023-06-19T06:34:11.216Z,1.14
2023-06-19T06:35:11.205Z,0.86
2023-06-19T06:36:11.656Z,0.74
2023-06-19T06:37:11.165Z,0.69
2023-06-19T06:38:11.148Z,0.62
2023-06-19T06:39:11.104Z,0.59
2023-06-19T06:40:11.084Z,0.54
2023-06-19T06:41:11.038Z,0.53
2023-06-19T06:42:11.008Z,0.51
2023-06-19T06:43:10.971Z,0.50
2023-06-19T06:44:10.931Z,0.51
2023-06-19T06:45:10.930Z,0.52
2023-06-19T06:46:10.935Z,0.51
2023-06-19T06:47:10.862Z,0.56
2023-06-19T06:48:10.956Z,0.61
2023-06-19T06:49:10.784Z,0.59
2023-06-19T06:50:10.719Z,0.55
2023-06-19T06:51:10.691Z,0.57
2023-06-19T06:52:10.645Z,0.55
2023-06-19T06:53:10.628Z,0.51
2023-06-19T06:54:10.571Z,0.48
2023-06-19T06:55:10.540Z,0.43
2023-06-19T06:56:10.501Z,0.50
2023-06-19T06:57:10.456Z,0.52
2023-06-19T06:58:10.423Z,0.49
2023-06-19T06:59:10.375Z,0.52
2023-06-19T07:00:10.348Z,0.51
2023-06-19T07:01:10.356Z,0.47
2023-06-19T07:02:10.303Z,0.50
2023-06-19T07:03:10.292Z,0.50
2023-06-19T07:04:10.201Z,0.50
2023-06-19T07:05:10.179Z,0.49
2023-06-19T07:06:10.142Z,0.48
2023-06-19T07:07:10.109Z,0.49
2023-06-19T07:08:10.092Z,0.50
2023-06-19T07:09:10.036Z,0.52
2023-06-19T07:10:10.026Z,0.56
2023-06-19T07:11:09.974Z,0.50
2023-06-19T07:12:09.941Z,0.49
2023-06-19T07:13:09.892Z,0.63
2023-06-19T07:14:09.854Z,0.58
2023-06-19T07:15:09.821Z,0.50
2023-06-19T07:16:09.776Z,0.52
2023-06-19T07:17:09.849Z,0.49
2023-06-19T07:18:09.781Z,0.50
2023-06-19T07:19:09.665Z,0.51
2023-06-19T07:20:09.642Z,0.55
2023-06-19T07:21:09.596Z,0.57
2023-06-19T07:22:09.591Z,0.57
2023-06-19T07:23:09.532Z,0.59
2023-06-19T07:24:09.543Z,0.57
2023-06-19T07:25:09.544Z,0.60
2023-06-19T07:26:09.504Z,0.64
2023-06-19T07:27:09.489Z,0.65
2023-06-19T07:28:09.504Z,0.69
2023-06-19T07:29:09.488Z,0.73
2023-06-19T07:30:09.486Z,0.77
2023-06-19T07:31:09.550Z,0.80
2023-06-19T07:32:09.445Z,0.83
2023-06-19T07:33:09.469Z,0.90
2023-06-19T07:34:09.634Z,0.92
2023-06-19T07:35:09.401Z,0.96
2023-06-19T07:36:09.416Z,1.00
2023-06-19T07:37:09.436Z,1.04
2023-06-19T07:38:09.410Z,1.10
2023-06-19T07:39:09.699Z,1.17
2023-06-19T07:40:09.410Z,1.22
2023-06-19T07:41:10.204Z,1.26
2023-06-19T07:42:09.413Z,1.29
2023-06-19T07:43:09.437Z,1.36
2023-06-19T07:44:09.423Z,1.43
2023-06-19T07:45:09.500Z,1.51
2023-06-19T07:46:09.430Z,1.63
2023-06-19T07:47:09.419Z,1.71
2023-06-19T07:48:09.430Z,1.73
2023-06-19T07:49:09.411Z,1.75
2023-06-19T07:50:09.393Z,1.86
2023-06-19T07:51:09.399Z,2.00
2023-06-19T07:52:09.370Z,2.01
2023-06-19T07:53:09.380Z,2.15
2023-06-19T07:54:09.361Z,2.20
2023-06-19T07:55:09.591Z,2.31
2023-06-19T07:56:09.344Z,2.44
2023-06-19T07:57:09.300Z,2.48
2023-06-19T07:58:09.306Z,2.60
2023-06-19T07:59:09.273Z,2.72
2023-06-19T08:00:09.256Z,2.82
2023-06-19T08:01:09.238Z,2.86
2023-06-19T08:02:09.265Z,2.92
2023-06-19T08:03:09.255Z,3.04
2023-06-19T08:04:09.150Z,3.20
2023-06-19T08:05:09.196Z,3.23
2023-06-19T08:06:09.185Z,3.31
2023-06-19T08:07:09.064Z,3.41
2023-06-19T08:08:09.046Z,3.58
2023-06-19T08:09:09.010Z,3.70
2023-06-19T08:10:14.039Z,3.76
2023-06-19T08:11:09.994Z,3.77
2023-06-19T08:12:08.930Z,3.81
2023-06-19T08:13:08.896Z,3.87
2023-06-19T08:14:08.852Z,4.09
2023-06-19T08:15:09.801Z,4.41
2023-06-19T08:16:08.761Z,4.77
2023-06-19T08:17:08.765Z,5.23
2023-06-19T08:18:08.761Z,5.27
2023-06-19T08:19:08.653Z,5.59
2023-06-19T08:20:08.623Z,5.95
2023-06-19T08:21:08.588Z,6.50
2023-06-19T08:22:08.545Z,7.20
2023-06-19T08:23:08.514Z,7.62
2023-06-19T08:24:08.521Z,7.98
2023-06-19T08:25:08.434Z,8.53
2023-06-19T08:26:08.399Z,9.45
2023-06-19T08:27:08.365Z,10.39
2023-06-19T08:28:08.337Z,11.02
2023-06-19T08:29:08.314Z,11.72
2023-06-19T08:30:08.252Z,12.24
2023-06-19T08:31:08.220Z,12.89
2023-06-19T08:32:08.192Z,13.40
2023-06-19T08:33:08.197Z,14.08
2023-06-19T08:34:08.127Z,14.35
2023-06-19T08:35:08.191Z,14.73
2023-06-19T08:36:08.061Z,15.08
2023-06-19T08:37:09.022Z,15.10
2023-06-19T08:38:07.987Z,15.21
2023-06-19T08:39:08.809Z,15.49
2023-06-19T08:40:07.897Z,16.01
2023-06-19T08:41:07.857Z,17.15
2023-06-19T08:42:07.823Z,17.13
2023-06-19T08:43:07.792Z,17.19
2023-06-19T08:44:07.749Z,17.64
2023-06-19T08:45:07.717Z,17.51
2023-06-19T08:46:07.715Z,17.70
2023-06-19T08:47:07.653Z,18.42
2023-06-19T08:48:07.646Z,17.83
2023-06-19T08:49:07.614Z,18.58
2023-06-19T08:50:07.603Z,18.73
2023-06-19T08:51:07.522Z,18.79
2023-06-19T08:52:07.484Z,18.77
2023-06-19T08:53:07.445Z,19.09
2023-06-19T08:54:07.404Z,19.26
2023-06-19T08:55:07.377Z,19.42
2023-06-19T08:56:07.352Z,20.07
2023-06-19T08:57:07.349Z,19.91
2023-06-19T08:58:07.292Z,20.16
2023-06-19T08:59:07.254Z,19.99
2023-06-19T09:00:07.223Z,20.49
2023-06-19T09:01:07.193Z,20.53
2023-06-19T09:02:07.182Z,20.73
2023-06-19T09:03:13.588Z,20.83
2023-06-19T09:04:08.216Z,20.87
2023-06-19T09:05:07.068Z,20.99
2023-06-19T09:06:07.131Z,21.01
2023-06-19T09:07:07.302Z,21.31
2023-06-19T09:08:06.983Z,21.76
2023-06-19T09:09:06.952Z,22.48
2023-06-19T09:10:06.925Z,22.51
2023-06-19T09:11:09.071Z,22.17
2023-06-19T09:12:06.855Z,22.21
2023-06-19T09:13:06.833Z,22.31
2023-06-19T09:14:06.798Z,22.56
2023-06-19T09:15:06.769Z,22.73
2023-06-19T09:16:06.750Z,23.40
2023-06-19T09:17:06.719Z,23.52
2023-06-19T09:18:06.834Z,23.11
2023-06-19T09:19:06.695Z,23.79
2023-06-19T09:20:06.638Z,23.59
2023-06-19T09:21:06.597Z,24.16
2023-06-19T09:22:06.566Z,23.59
2023-06-19T09:23:06.536Z,24.00
2023-06-19T09:24:06.518Z,24.14
2023-06-19T09:25:06.466Z,24.63
2023-06-19T09:26:06.435Z,23.72
2023-06-19T09:27:06.405Z,24.45
2023-06-19T09:28:06.450Z,23.93
2023-06-19T09:29:06.361Z,24.35
2023-06-19T09:30:06.336Z,24.72
2023-06-19T09:31:06.365Z,24.38
2023-06-19T09:32:06.267Z,24.64
2023-06-19T09:33:06.343Z,24.51
2023-06-19T09:34:07.211Z,24.56
2023-06-19T09:35:06.181Z,24.65
2023-06-19T09:36:06.154Z,24.77
2023-06-19T09:37:06.135Z,24.74
2023-06-19T09:38:06.104Z,25.50
2023-06-19T09:39:06.076Z,25.60
2023-06-19T09:40:06.032Z,25.51
2023-06-19T09:41:06.023Z,25.36
2023-06-19T09:42:05.966Z,25.15
2023-06-19T09:43:05.944Z,25.32
2023-06-19T09:44:05.891Z,25.04
2023-06-19T09:45:06.865Z,24.97
2023-06-19T09:46:05.820Z,25.02
2023-06-19T09:47:06.837Z,25.31
2023-06-19T09:48:05.772Z,25.08
2023-06-19T09:49:05.717Z,25.19
2023-06-19T09:50:05.722Z,25.22
2023-06-19T09:51:05.647Z,25.14
2023-06-19T09:52:05.627Z,24.81
2023-06-19T09:53:06.267Z,25.20
2023-06-19T09:54:05.561Z,25.22
2023-06-19T09:55:05.532Z,25.30
2023-06-19T09:56:05.570Z,25.20
2023-06-19T09:57:05.473Z,25.06
2023-06-19T09:58:05.442Z,24.82
2023-06-19T09:59:05.409Z,25.74
2023-06-19T10:00:05.381Z,25.45
2023-06-19T10:01:05.370Z,25.31
2023-06-19T10:02:05.379Z,25.23
2023-06-19T10:03:05.438Z,24.73
2023-06-19T10:04:05.273Z,25.03
2023-06-19T10:05:05.271Z,24.88
2023-06-19T10:06:05.217Z,24.60
2023-06-19T10:07:05.217Z,24.48
2023-06-19T10:08:05.230Z,24.68
2023-06-19T10:09:05.207Z,24.71
2023-06-19T10:10:05.247Z,24.55
2023-06-19T10:11:05.225Z,24.58
2023-06-19T10:12:05.217Z,24.67
2023-06-19T10:13:05.245Z,24.64
2023-06-19T10:14:05.235Z,24.56
2023-06-19T10:15:05.230Z,24.41
2023-06-19T10:16:05.237Z,24.24
2023-06-19T10:17:05.269Z,24.33
2023-06-19T10:18:05.277Z,24.19
2023-06-19T10:19:05.404Z,24.16
2023-06-19T10:20:05.234Z,24.18
2023-06-19T10:21:05.240Z,24.07
2023-06-19T10:22:05.862Z,23.72
2023-06-19T10:23:05.601Z,24.22
2023-06-19T10:24:05.277Z,23.92
2023-06-19T10:25:05.231Z,23.93
2023-06-19T10:26:05.256Z,24.32
2023-06-19T10:27:05.257Z,23.55
2023-06-19T10:28:05.257Z,24.10
2023-06-19T10:29:05.240Z,23.94
2023-06-19T10:30:11.845Z,23.17
2023-06-19T10:31:06.293Z,23.22
2023-06-19T10:32:05.188Z,23.30
2023-06-19T10:33:05.259Z,23.64
2023-06-19T10:34:05.147Z,23.95
2023-06-19T10:35:05.109Z,24.20
2023-06-19T10:36:05.083Z,24.21
2023-06-19T10:37:05.048Z,24.45
2023-06-19T10:38:07.884Z,24.00
2023-06-19T10:39:04.998Z,24.33
2023-06-19T10:40:04.966Z,24.16
2023-06-19T10:41:04.934Z,24.05
2023-06-19T10:42:05.949Z,24.05
2023-06-19T10:43:04.908Z,24.04
2023-06-19T10:44:04.862Z,23.81
2023-06-19T10:45:04.836Z,23.91
2023-06-19T10:46:04.858Z,23.62
2023-06-19T10:47:04.778Z,23.66
2023-06-19T10:48:04.837Z,23.38
2023-06-19T10:49:04.738Z,23.29
2023-06-19T10:50:04.711Z,22.98
2023-06-19T10:51:04.687Z,23.06
2023-06-19T10:52:04.672Z,22.88
2023-06-19T10:53:04.655Z,22.78
2023-06-19T10:54:04.609Z,23.08
2023-06-19T10:55:04.598Z,22.57
2023-06-19T10:56:04.553Z,22.55
2023-06-19T10:57:04.515Z,22.60
2023-06-19T10:58:04.493Z,22.65
2023-06-19T10:59:04.482Z,22.28
2023-06-19T11:00:04.414Z,22.08
2023-06-19T11:01:04.381Z,22.18
2023-06-19T11:02:04.464Z,22.11
2023-06-19T11:03:04.366Z,22.11
2023-06-19T11:04:04.300Z,21.78
2023-06-19T11:05:04.213Z,21.56
2023-06-19T11:06:04.171Z,21.49
2023-06-19T11:07:04.183Z,21.51
2023-06-19T11:08:04.099Z,21.58
2023-06-19T11:09:04.062Z,21.18
2023-06-19T11:10:04.026Z,21.17
2023-06-19T11:11:03.980Z,20.77
2023-06-19T11:12:03.953Z,21.12
2023-06-19T11:13:03.912Z,20.55
2023-06-19T11:14:03.866Z,20.63
2023-06-19T11:15:03.838Z,20.13
2023-06-19T11:16:03.792Z,20.29
2023-06-19T11:17:03.794Z,20.17
2023-06-19T11:18:03.747Z,19.79
2023-06-19T11:19:03.667Z,20.04
2023-06-19T11:20:03.631Z,19.70
2023-06-19T11:21:03.587Z,19.92
2023-06-19T11:22:03.551Z,19.71
2023-06-19T11:23:03.543Z,19.28
2023-06-19T11:24:03.519Z,19.54
2023-06-19T11:25:03.437Z,18.99
2023-06-19T11:26:03.397Z,18.88
2023-06-19T11:27:03.365Z,19.11
2023-06-19T11:28:03.338Z,18.94
2023-06-19T11:29:03.283Z,18.79
2023-06-19T11:30:03.241Z,18.86
2023-06-19T11:31:03.288Z,19.26
2023-06-19T11:32:03.162Z,18.75
2023-06-19T11:33:03.182Z,18.52
2023-06-19T11:34:03.078Z,18.77
2023-06-19T11:35:03.044Z,18.47
2023-06-19T11:36:03.037Z,18.66
2023-06-19T11:37:03.041Z,18.22
2023-06-19T11:38:02.938Z,18.47
2023-06-19T11:39:02.942Z,18.58
2023-06-19T11:40:02.860Z,18.46
2023-06-19T11:41:02.803Z,18.48
2023-06-19T11:42:02.778Z,18.41
2023-06-19T11:43:02.728Z,18.84
2023-06-19T11:44:02.678Z,18.13
2023-06-19T11:45:02.632Z,18.38
2023-06-19T11:46:02.633Z,18.44
2023-06-19T11:47:02.553Z,17.99
2023-06-19T11:48:02.582Z,18.21
2023-06-19T11:49:07.239Z,18.27
2023-06-19T11:50:03.444Z,18.30
2023-06-19T11:51:02.413Z,18.36
2023-06-19T11:52:02.379Z,18.35
2023-06-19T11:53:02.343Z,18.50
2023-06-19T11:54:02.307Z,18.65
2023-06-19T11:55:02.280Z,18.40
2023-06-19T11:56:02.242Z,18.25
2023-06-19T11:57:02.200Z,18.44
2023-06-19T11:58:02.186Z,18.44
2023-06-19T11:59:02.148Z,18.57
2023-06-19T12:00:02.112Z,18.01
2023-06-19T12:01:02.059Z,18.02
2023-06-19T12:02:02.042Z,17.80
2023-06-19T12:03:02.157Z,18.13
2023-06-19T12:04:02.167Z,17.92
2023-06-19T12:05:01.923Z,17.56
2023-06-19T12:06:01.886Z,17.81
2023-06-19T12:07:01.847Z,17.36
2023-06-19T12:08:01.817Z,17.58
2023-06-19T12:09:01.767Z,17.37
2023-06-19T12:10:03.781Z,16.84
2023-06-19T12:11:01.705Z,17.24
2023-06-19T12:12:01.689Z,17.13
2023-06-19T12:13:01.614Z,16.84
2023-06-19T12:14:01.674Z,16.94
2023-06-19T12:15:01.540Z,16.83
2023-06-19T12:16:01.512Z,16.72
2023-06-19T12:17:02.470Z,16.68
2023-06-19T12:18:01.459Z,16.38
2023-06-19T12:19:01.421Z,16.52
2023-06-19T12:20:01.373Z,16.22
2023-06-19T12:21:01.327Z,16.36
2023-06-19T12:22:01.308Z,16.22
2023-06-19T12:23:01.245Z,16.18
2023-06-19T12:24:01.265Z,16.52
2023-06-19T12:25:01.183Z,16.01
2023-06-19T12:26:01.168Z,16.18
2023-06-19T12:27:01.141Z,15.96
2023-06-19T12:28:01.138Z,15.87
2023-06-19T12:29:01.087Z,15.86
2023-06-19T12:30:01.059Z,15.74
2023-06-19T12:31:01.036Z,15.98
2023-06-19T12:32:00.992Z,15.95
2023-06-19T12:33:00.993Z,15.80
2023-06-19T12:34:02.590Z,15.88
2023-06-19T12:35:01.893Z,15.91
2023-06-19T12:36:00.861Z,15.94
2023-06-19T12:37:00.842Z,15.88
2023-06-19T12:38:00.805Z,16.06
2023-06-19T12:39:00.747Z,16.26
2023-06-19T12:40:00.745Z,15.99
2023-06-19T12:41:00.700Z,15.98
2023-06-19T12:42:00.654Z,16.04
2023-06-19T12:43:00.737Z,15.97
2023-06-19T12:44:00.581Z,16.14
2023-06-19T12:45:00.572Z,16.12
2023-06-19T12:46:00.566Z,16.15
2023-06-19T12:47:00.512Z,16.29
2023-06-19T12:48:00.549Z,16.17
2023-06-19T12:49:00.438Z,16.12
2023-06-19T12:50:00.387Z,16.42
2023-06-19T12:51:00.332Z,16.21
2023-06-19T12:52:00.303Z,16.09
2023-06-19T12:53:00.263Z,16.28
2023-06-19T12:54:00.224Z,16.34
2023-06-19T12:55:00.192Z,16.40
2023-06-19T12:56:02.397Z,15.90
2023-06-19T12:57:00.115Z,15.91
2023-06-19T12:58:00.104Z,15.92
2023-06-19T12:59:00.042Z,15.72
2023-06-19T13:00:00.012Z,15.90
2023-06-19T13:00:59.988Z,15.75
2023-06-19T13:02:00.015Z,16.10
2023-06-19T13:03:00.002Z,16.30
2023-06-19T13:04:00.039Z,16.33
2023-06-19T13:04:59.861Z,16.42
2023-06-19T13:05:59.841Z,16.62
2023-06-19T13:06:59.806Z,16.59
2023-06-19T13:07:59.781Z,16.40
2023-06-19T13:08:59.759Z,16.69